Terminal Aerodrome Forecast
Issued by NWS Green Bay, WI

Home | Current Version | Previous Version | Graphics & Text | Print | Product List | Glossary On
Versions: 1 2 3 4 5 6 7 8 9 10 11 12 13 14 15 16 17 18 19 20 21 22 23
000
FTUS43 KGRB 230104 AAA
TAFGRB
TAF AMD
KGRB 230104Z 2301/2324 17008KT P6SM SCT040 BKN100
      TEMPO 2301/2302 03015G27KT 3SM TSRA BKN040CB
     FM230400 13003KT 5SM -TSRA BKN020CB
      TEMPO 2304/2306 2SM TSRA OVC012CB
     FM230600 27004KT 4SM BR BKN050
     FM231200 26005KT P6SM SCT050 SCT100
     FM231500 31009KT P6SM BKN050=

USA.gov is the U.S. government's official web portal to all federal, state and local government web resources and services.